sensor_id;sensor_type;location;lat;lon;timestamp;P1;durP1;ratioP1;P2;durP2;ratioP2
25123;SDS011;13104;51.030;4.686;2023-12-20T00:01:54;4.32;;;4.03;;
25123;SDS011;13104;51.030;4.686;2023-12-20T00:04:20;4.35;;;4.15;;
25123;SDS011;13104;51.030;4.686;2023-12-20T00:06:46;4.43;;;4.10;;
25123;SDS011;13104;51.030;4.686;2023-12-20T00:09:12;7.15;;;4.40;;
25123;SDS011;13104;51.030;4.686;2023-12-20T00:11:38;4.57;;;4.28;;
25123;SDS011;13104;51.030;4.686;2023-12-20T00:14:04;5.00;;;4.30;;
25123;SDS011;13104;51.030;4.686;2023-12-20T00:16:30;4.85;;;3.90;;
25123;SDS011;13104;51.030;4.686;2023-12-20T00:18:56;4.32;;;4.07;;
25123;SDS011;13104;51.030;4.686;2023-12-20T00:21:22;3.88;;;3.67;;
25123;SDS011;13104;51.030;4.686;2023-12-20T00:23:49;4.20;;;3.95;;
25123;SDS011;13104;51.030;4.686;2023-12-20T00:26:15;3.35;;;3.15;;
25123;SDS011;13104;51.030;4.686;2023-12-20T00:28:41;3.75;;;3.47;;
25123;SDS011;13104;51.030;4.686;2023-12-20T00:31:07;3.88;;;3.58;;
25123;SDS011;13104;51.030;4.686;2023-12-20T00:33:33;3.75;;;3.55;;
25123;SDS011;13104;51.030;4.686;2023-12-20T00:36:00;4.65;;;3.00;;
25123;SDS011;13104;51.030;4.686;2023-12-20T00:38:26;3.78;;;3.58;;
25123;SDS011;13104;51.030;4.686;2023-12-20T00:40:52;12.38;;;3.72;;
25123;SDS011;13104;51.030;4.686;2023-12-20T00:43:18;7.82;;;3.72;;
25123;SDS011;13104;51.030;4.686;2023-12-20T00:45:44;4.13;;;3.85;;
25123;SDS011;13104;51.030;4.686;2023-12-20T00:48:10;4.38;;;3.80;;
25123;SDS011;13104;51.030;4.686;2023-12-20T00:50:37;3.72;;;3.53;;
25123;SDS011;13104;51.030;4.686;2023-12-20T00:53:03;3.97;;;3.67;;
25123;SDS011;13104;51.030;4.686;2023-12-20T00:55:29;6.22;;;4.03;;
25123;SDS011;13104;51.030;4.686;2023-12-20T00:57:55;7.95;;;3.45;;
25123;SDS011;13104;51.030;4.686;2023-12-20T01:00:21;4.57;;;3.45;;
25123;SDS011;13104;51.030;4.686;2023-12-20T01:02:47;5.18;;;3.05;;
25123;SDS011;13104;51.030;4.686;2023-12-20T01:05:14;3.03;;;2.88;;
25123;SDS011;13104;51.030;4.686;2023-12-20T01:07:40;3.80;;;3.50;;
25123;SDS011;13104;51.030;4.686;2023-12-20T01:10:07;4.60;;;4.13;;
25123;SDS011;13104;51.030;4.686;2023-12-20T01:12:33;3.15;;;2.92;;
25123;SDS011;13104;51.030;4.686;2023-12-20T01:14:59;2.90;;;2.72;;
25123;SDS011;13104;51.030;4.686;2023-12-20T01:17:25;3.40;;;3.10;;
25123;SDS011;13104;51.030;4.686;2023-12-20T01:19:51;2.70;;;2.58;;
25123;SDS011;13104;51.030;4.686;2023-12-20T01:22:17;8.95;;;2.75;;
25123;SDS011;13104;51.030;4.686;2023-12-20T01:24:44;15.77;;;2.70;;
25123;SDS011;13104;51.030;4.686;2023-12-20T01:27:10;3.38;;;3.08;;
25123;SDS011;13104;51.030;4.686;2023-12-20T01:29:36;3.47;;;2.88;;
25123;SDS011;13104;51.030;4.686;2023-12-20T01:32:02;3.13;;;2.85;;
25123;SDS011;13104;51.030;4.686;2023-12-20T01:34:28;2.50;;;2.40;;
25123;SDS011;13104;51.030;4.686;2023-12-20T01:36:54;5.22;;;2.97;;
25123;SDS011;13104;51.030;4.686;2023-12-20T01:39:20;2.38;;;2.17;;
25123;SDS011;13104;51.030;4.686;2023-12-20T01:41:46;14.05;;;2.60;;
25123;SDS011;13104;51.030;4.686;2023-12-20T01:44:12;7.75;;;2.20;;
25123;SDS011;13104;51.030;4.686;2023-12-20T01:46:38;3.45;;;2.85;;
25123;SDS011;13104;51.030;4.686;2023-12-20T01:49:04;1.95;;;1.85;;
25123;SDS011;13104;51.030;4.686;2023-12-20T01:51:30;1.67;;;1.58;;
25123;SDS011;13104;51.030;4.686;2023-12-20T01:53:56;2.20;;;2.05;;
25123;SDS011;13104;51.030;4.686;2023-12-20T01:56:23;2.05;;;1.92;;
25123;SDS011;13104;51.030;4.686;2023-12-20T01:58:50;7.97;;;2.05;;
25123;SDS011;13104;51.030;4.686;2023-12-20T02:01:16;2.25;;;2.05;;
25123;SDS011;13104;51.030;4.686;2023-12-20T02:03:42;2.13;;;1.75;;
25123;SDS011;13104;51.030;4.686;2023-12-20T02:06:08;2.20;;;2.05;;
25123;SDS011;13104;51.030;4.686;2023-12-20T02:08:35;1.75;;;1.63;;
25123;SDS011;13104;51.030;4.686;2023-12-20T02:11:01;5.93;;;1.63;;
25123;SDS011;13104;51.030;4.686;2023-12-20T02:13:27;5.07;;;2.20;;
25123;SDS011;13104;51.030;4.686;2023-12-20T02:15:54;1.80;;;1.52;;
25123;SDS011;13104;51.030;4.686;2023-12-20T02:18:20;3.22;;;2.15;;
25123;SDS011;13104;51.030;4.686;2023-12-20T02:20:46;1.52;;;1.42;;
25123;SDS011;13104;51.030;4.686;2023-12-20T02:23:12;1.77;;;1.35;;
25123;SDS011;13104;51.030;4.686;2023-12-20T02:25:39;1.60;;;1.50;;
25123;SDS011;13104;51.030;4.686;2023-12-20T02:28:05;6.30;;;1.48;;
25123;SDS011;13104;51.030;4.686;2023-12-20T02:30:31;7.53;;;1.50;;
25123;SDS011;13104;51.030;4.686;2023-12-20T02:32:59;1.30;;;1.20;;
25123;SDS011;13104;51.030;4.686;2023-12-20T02:35:25;1.48;;;1.38;;
25123;SDS011;13104;51.030;4.686;2023-12-20T02:37:51;1.27;;;1.15;;
25123;SDS011;13104;51.030;4.686;2023-12-20T02:40:17;4.38;;;1.10;;
25123;SDS011;13104;51.030;4.686;2023-12-20T02:42:43;1.27;;;1.05;;
25123;SDS011;13104;51.030;4.686;2023-12-20T02:45:09;6.90;;;1.75;;
25123;SDS011;13104;51.030;4.686;2023-12-20T02:47:35;4.63;;;1.45;;
25123;SDS011;13104;51.030;4.686;2023-12-20T02:50:01;1.88;;;0.90;;
25123;SDS011;13104;51.030;4.686;2023-12-20T02:52:28;11.43;;;1.48;;
25123;SDS011;13104;51.030;4.686;2023-12-20T02:54:54;1.05;;;1.00;;
25123;SDS011;13104;51.030;4.686;2023-12-20T02:57:20;4.38;;;1.30;;
25123;SDS011;13104;51.030;4.686;2023-12-20T02:59:46;4.18;;;1.40;;
25123;SDS011;13104;51.030;4.686;2023-12-20T03:02:12;5.93;;;1.52;;
25123;SDS011;13104;51.030;4.686;2023-12-20T03:04:38;1.52;;;1.42;;
25123;SDS011;13104;51.030;4.686;2023-12-20T03:07:04;18.80;;;1.52;;
25123;SDS011;13104;51.030;4.686;2023-12-20T03:09:30;12.90;;;1.90;;
25123;SDS011;13104;51.030;4.686;2023-12-20T03:11:57;2.72;;;1.48;;
25123;SDS011;13104;51.030;4.686;2023-12-20T03:14:23;1.33;;;1.23;;
25123;SDS011;13104;51.030;4.686;2023-12-20T03:16:49;1.45;;;1.30;;
25123;SDS011;13104;51.030;4.686;2023-12-20T03:19:17;3.22;;;1.27;;
25123;SDS011;13104;51.030;4.686;2023-12-20T03:21:46;2.63;;;0.93;;
25123;SDS011;13104;51.030;4.686;2023-12-20T03:24:12;14.27;;;0.93;;
25123;SDS011;13104;51.030;4.686;2023-12-20T03:26:38;9.00;;;1.40;;
25123;SDS011;13104;51.030;4.686;2023-12-20T03:29:04;1.08;;;0.93;;
25123;SDS011;13104;51.030;4.686;2023-12-20T03:31:30;1.58;;;1.30;;
25123;SDS011;13104;51.030;4.686;2023-12-20T03:33:56;2.53;;;1.10;;
25123;SDS011;13104;51.030;4.686;2023-12-20T03:36:23;1.33;;;0.98;;
25123;SDS011;13104;51.030;4.686;2023-12-20T03:38:49;1.08;;;1.00;;
25123;SDS011;13104;51.030;4.686;2023-12-20T03:41:15;2.80;;;1.48;;
25123;SDS011;13104;51.030;4.686;2023-12-20T03:43:41;3.65;;;1.20;;
25123;SDS011;13104;51.030;4.686;2023-12-20T03:46:10;2.88;;;1.58;;
25123;SDS011;13104;51.030;4.686;2023-12-20T03:48:36;5.15;;;1.13;;
25123;SDS011;13104;51.030;4.686;2023-12-20T03:51:02;1.40;;;1.30;;
25123;SDS011;13104;51.030;4.686;2023-12-20T03:53:28;2.30;;;0.95;;
25123;SDS011;13104;51.030;4.686;2023-12-20T03:55:54;1.10;;;1.00;;
25123;SDS011;13104;51.030;4.686;2023-12-20T03:58:20;1.13;;;1.10;;
25123;SDS011;13104;51.030;4.686;2023-12-20T04:00:46;8.18;;;1.38;;
25123;SDS011;13104;51.030;4.686;2023-12-20T04:03:12;1.17;;;1.15;;
25123;SDS011;13104;51.030;4.686;2023-12-20T04:05:42;6.93;;;1.17;;
25123;SDS011;13104;51.030;4.686;2023-12-20T04:08:08;1.95;;;1.60;;
25123;SDS011;13104;51.030;4.686;2023-12-20T04:10:35;1.65;;;1.25;;
25123;SDS011;13104;51.030;4.686;2023-12-20T04:13:02;3.47;;;1.98;;
25123;SDS011;13104;51.030;4.686;2023-12-20T04:15:28;1.48;;;1.10;;
25123;SDS011;13104;51.030;4.686;2023-12-20T04:17:54;2.47;;;1.80;;
25123;SDS011;13104;51.030;4.686;2023-12-20T04:20:20;1.50;;;1.13;;
25123;SDS011;13104;51.030;4.686;2023-12-20T04:22:46;3.58;;;1.67;;
25123;SDS011;13104;51.030;4.686;2023-12-20T04:25:12;1.73;;;1.42;;
25123;SDS011;13104;51.030;4.686;2023-12-20T04:27:38;1.65;;;1.55;;
25123;SDS011;13104;51.030;4.686;2023-12-20T04:30:04;6.32;;;1.92;;
25123;SDS011;13104;51.030;4.686;2023-12-20T04:32:30;9.07;;;2.33;;
25123;SDS011;13104;51.030;4.686;2023-12-20T04:34:56;6.68;;;2.42;;
25123;SDS011;13104;51.030;4.686;2023-12-20T04:37:22;2.45;;;1.83;;
25123;SDS011;13104;51.030;4.686;2023-12-20T04:39:48;15.40;;;1.77;;
25123;SDS011;13104;51.030;4.686;2023-12-20T04:42:15;5.47;;;1.73;;
25123;SDS011;13104;51.030;4.686;2023-12-20T04:44:41;4.55;;;2.45;;
25123;SDS011;13104;51.030;4.686;2023-12-20T04:47:08;3.05;;;1.88;;
25123;SDS011;13104;51.030;4.686;2023-12-20T04:49:35;11.57;;;2.75;;
25123;SDS011;13104;51.030;4.686;2023-12-20T04:52:01;3.75;;;1.77;;
25123;SDS011;13104;51.030;4.686;2023-12-20T04:54:27;5.80;;;2.33;;
25123;SDS011;13104;51.030;4.686;2023-12-20T04:56:53;1.50;;;1.40;;
25123;SDS011;13104;51.030;4.686;2023-12-20T04:59:19;2.70;;;1.73;;
25123;SDS011;13104;51.030;4.686;2023-12-20T05:01:45;5.13;;;1.85;;
25123;SDS011;13104;51.030;4.686;2023-12-20T05:04:11;8.70;;;1.73;;
25123;SDS011;13104;51.030;4.686;2023-12-20T05:06:37;2.00;;;1.77;;
25123;SDS011;13104;51.030;4.686;2023-12-20T05:09:03;4.43;;;1.48;;
25123;SDS011;13104;51.030;4.686;2023-12-20T05:11:29;17.88;;;1.73;;
25123;SDS011;13104;51.030;4.686;2023-12-20T05:13:55;10.00;;;2.03;;
25123;SDS011;13104;51.030;4.686;2023-12-20T05:16:22;1.63;;;1.48;;
25123;SDS011;13104;51.030;4.686;2023-12-20T05:18:48;1.45;;;1.35;;
25123;SDS011;13104;51.030;4.686;2023-12-20T05:21:18;1.85;;;1.73;;
25123;SDS011;13104;51.030;4.686;2023-12-20T05:23:44;2.15;;;1.58;;
25123;SDS011;13104;51.030;4.686;2023-12-20T05:26:10;1.70;;;1.58;;
25123;SDS011;13104;51.030;4.686;2023-12-20T05:28:36;1.90;;;1.80;;
25123;SDS011;13104;51.030;4.686;2023-12-20T05:31:02;6.88;;;2.00;;
25123;SDS011;13104;51.030;4.686;2023-12-20T05:33:28;6.18;;;1.75;;
25123;SDS011;13104;51.030;4.686;2023-12-20T05:35:54;3.35;;;2.10;;
25123;SDS011;13104;51.030;4.686;2023-12-20T05:38:20;8.65;;;2.20;;
25123;SDS011;13104;51.030;4.686;2023-12-20T05:40:46;9.57;;;1.67;;
25123;SDS011;13104;51.030;4.686;2023-12-20T05:43:12;4.30;;;2.15;;
25123;SDS011;13104;51.030;4.686;2023-12-20T05:45:38;2.72;;;1.55;;
25123;SDS011;13104;51.030;4.686;2023-12-20T05:48:04;9.40;;;1.52;;
25123;SDS011;13104;51.030;4.686;2023-12-20T05:50:30;9.30;;;1.45;;
25123;SDS011;13104;51.030;4.686;2023-12-20T05:52:56;2.28;;;1.45;;
25123;SDS011;13104;51.030;4.686;2023-12-20T05:55:22;5.90;;;1.50;;
25123;SDS011;13104;51.030;4.686;2023-12-20T05:57:49;1.42;;;1.33;;
25123;SDS011;13104;51.030;4.686;2023-12-20T06:00:15;1.90;;;1.38;;
25123;SDS011;13104;51.030;4.686;2023-12-20T06:02:41;15.25;;;2.28;;
25123;SDS011;13104;51.030;4.686;2023-12-20T06:05:07;1.45;;;1.35;;
25123;SDS011;13104;51.030;4.686;2023-12-20T06:07:33;3.10;;;1.55;;
25123;SDS011;13104;51.030;4.686;2023-12-20T06:09:59;1.85;;;1.20;;
25123;SDS011;13104;51.030;4.686;2023-12-20T06:12:25;1.48;;;1.23;;
25123;SDS011;13104;51.030;4.686;2023-12-20T06:14:53;4.80;;;1.25;;
25123;SDS011;13104;51.030;4.686;2023-12-20T06:17:19;1.98;;;1.65;;
25123;SDS011;13104;51.030;4.686;2023-12-20T06:19:45;3.47;;;1.63;;
25123;SDS011;13104;51.030;4.686;2023-12-20T06:22:13;2.67;;;1.25;;
25123;SDS011;13104;51.030;4.686;2023-12-20T06:24:39;2.17;;;0.85;;
25123;SDS011;13104;51.030;4.686;2023-12-20T06:27:05;1.13;;;1.02;;
25123;SDS011;13104;51.030;4.686;2023-12-20T06:29:31;1.15;;;1.05;;
25123;SDS011;13104;51.030;4.686;2023-12-20T06:31:57;4.22;;;1.35;;
25123;SDS011;13104;51.030;4.686;2023-12-20T06:34:23;2.30;;;1.48;;
25123;SDS011;13104;51.030;4.686;2023-12-20T06:36:49;10.40;;;2.47;;
25123;SDS011;13104;51.030;4.686;2023-12-20T06:39:15;8.38;;;1.25;;
25123;SDS011;13104;51.030;4.686;2023-12-20T06:41:41;1.60;;;1.50;;
25123;SDS011;13104;51.030;4.686;2023-12-20T06:44:08;1.98;;;1.33;;
25123;SDS011;13104;51.030;4.686;2023-12-20T06:46:34;1.92;;;1.42;;
25123;SDS011;13104;51.030;4.686;2023-12-20T06:49:00;3.97;;;1.80;;
25123;SDS011;13104;51.030;4.686;2023-12-20T06:51:26;2.10;;;1.85;;
25123;SDS011;13104;51.030;4.686;2023-12-20T06:53:52;2.50;;;1.92;;
25123;SDS011;13104;51.030;4.686;2023-12-20T06:56:18;2.92;;;2.08;;
25123;SDS011;13104;51.030;4.686;2023-12-20T06:58:46;2.00;;;1.80;;
25123;SDS011;13104;51.030;4.686;2023-12-20T07:01:15;1.80;;;1.70;;
25123;SDS011;13104;51.030;4.686;2023-12-20T07:03:41;5.72;;;1.80;;
25123;SDS011;13104;51.030;4.686;2023-12-20T07:06:08;1.80;;;1.70;;
25123;SDS011;13104;51.030;4.686;2023-12-20T07:08:34;2.38;;;2.13;;
25123;SDS011;13104;51.030;4.686;2023-12-20T07:11:00;6.13;;;2.72;;
25123;SDS011;13104;51.030;4.686;2023-12-20T07:13:26;12.07;;;2.15;;
25123;SDS011;13104;51.030;4.686;2023-12-20T07:15:52;2.53;;;1.95;;
25123;SDS011;13104;51.030;4.686;2023-12-20T07:18:18;2.47;;;2.25;;
25123;SDS011;13104;51.030;4.686;2023-12-20T07:20:44;2.42;;;2.22;;
25123;SDS011;13104;51.030;4.686;2023-12-20T07:23:10;2.47;;;1.90;;
25123;SDS011;13104;51.030;4.686;2023-12-20T07:25:36;1.58;;;1.48;;
25123;SDS011;13104;51.030;4.686;2023-12-20T07:28:02;2.30;;;1.88;;
25123;SDS011;13104;51.030;4.686;2023-12-20T07:30:28;8.95;;;2.17;;
25123;SDS011;13104;51.030;4.686;2023-12-20T07:32:55;1.98;;;1.88;;
25123;SDS011;13104;51.030;4.686;2023-12-20T07:35:23;3.53;;;1.90;;
25123;SDS011;13104;51.030;4.686;2023-12-20T07:37:50;3.00;;;2.17;;
25123;SDS011;13104;51.030;4.686;2023-12-20T07:40:16;14.32;;;2.05;;
25123;SDS011;13104;51.030;4.686;2023-12-20T07:42:42;6.93;;;2.50;;
25123;SDS011;13104;51.030;4.686;2023-12-20T07:45:08;1.70;;;1.60;;
25123;SDS011;13104;51.030;4.686;2023-12-20T07:47:35;2.08;;;1.88;;
25123;SDS011;13104;51.030;4.686;2023-12-20T07:50:01;1.95;;;1.85;;
25123;SDS011;13104;51.030;4.686;2023-12-20T07:52:28;10.40;;;1.65;;
25123;SDS011;13104;51.030;4.686;2023-12-20T07:54:54;7.55;;;1.92;;
25123;SDS011;13104;51.030;4.686;2023-12-20T07:57:21;6.05;;;2.08;;
25123;SDS011;13104;51.030;4.686;2023-12-20T07:59:47;1.70;;;1.60;;
25123;SDS011;13104;51.030;4.686;2023-12-20T08:02:13;4.47;;;1.55;;
25123;SDS011;13104;51.030;4.686;2023-12-20T08:04:39;1.27;;;1.17;;
25123;SDS011;13104;51.030;4.686;2023-12-20T08:07:06;13.77;;;2.13;;
25123;SDS011;13104;51.030;4.686;2023-12-20T08:09:32;2.05;;;1.45;;
25123;SDS011;13104;51.030;4.686;2023-12-20T08:11:59;2.25;;;1.85;;
25123;SDS011;13104;51.030;4.686;2023-12-20T08:14:25;1.52;;;1.42;;
25123;SDS011;13104;51.030;4.686;2023-12-20T08:16:51;17.50;;;1.60;;
25123;SDS011;13104;51.030;4.686;2023-12-20T08:19:17;3.33;;;1.40;;
25123;SDS011;13104;51.030;4.686;2023-12-20T08:21:43;5.72;;;1.67;;
25123;SDS011;13104;51.030;4.686;2023-12-20T08:24:09;2.00;;;1.67;;
25123;SDS011;13104;51.030;4.686;2023-12-20T08:26:35;19.13;;;1.48;;
25123;SDS011;13104;51.030;4.686;2023-12-20T08:29:01;3.20;;;1.63;;
25123;SDS011;13104;51.030;4.686;2023-12-20T08:31:27;1.45;;;1.35;;
25123;SDS011;13104;51.030;4.686;2023-12-20T08:33:53;2.35;;;1.63;;
25123;SDS011;13104;51.030;4.686;2023-12-20T08:36:19;1.75;;;1.25;;
25123;SDS011;13104;51.030;4.686;2023-12-20T08:38:47;3.40;;;1.95;;
25123;SDS011;13104;51.030;4.686;2023-12-20T08:41:13;5.25;;;1.60;;
25123;SDS011;13104;51.030;4.686;2023-12-20T08:43:39;3.42;;;2.95;;
25123;SDS011;13104;51.030;4.686;2023-12-20T08:46:06;2.90;;;2.22;;
25123;SDS011;13104;51.030;4.686;2023-12-20T08:48:32;2.97;;;1.98;;
25123;SDS011;13104;51.030;4.686;2023-12-20T08:50:58;3.65;;;2.38;;
25123;SDS011;13104;51.030;4.686;2023-12-20T08:53:24;1.77;;;1.67;;
25123;SDS011;13104;51.030;4.686;2023-12-20T08:55:50;1.83;;;1.67;;
25123;SDS011;13104;51.030;4.686;2023-12-20T08:58:16;2.53;;;2.33;;
25123;SDS011;13104;51.030;4.686;2023-12-20T09:00:42;4.00;;;1.98;;
25123;SDS011;13104;51.030;4.686;2023-12-20T09:03:08;2.28;;;2.13;;
25123;SDS011;13104;51.030;4.686;2023-12-20T09:05:34;3.50;;;2.97;;
25123;SDS011;13104;51.030;4.686;2023-12-20T09:08:00;2.75;;;1.80;;
25123;SDS011;13104;51.030;4.686;2023-12-20T09:10:26;2.85;;;2.38;;
25123;SDS011;13104;51.030;4.686;2023-12-20T09:12:53;5.25;;;2.30;;
25123;SDS011;13104;51.030;4.686;2023-12-20T09:15:22;5.85;;;1.95;;
25123;SDS011;13104;51.030;4.686;2023-12-20T09:17:49;1.88;;;1.77;;
25123;SDS011;13104;51.030;4.686;2023-12-20T09:20:15;2.75;;;2.10;;
25123;SDS011;13104;51.030;4.686;2023-12-20T09:22:41;3.65;;;1.75;;
25123;SDS011;13104;51.030;4.686;2023-12-20T09:25:07;12.13;;;2.20;;
25123;SDS011;13104;51.030;4.686;2023-12-20T09:27:33;6.63;;;3.30;;
25123;SDS011;13104;51.030;4.686;2023-12-20T09:29:59;2.97;;;2.78;;
25123;SDS011;13104;51.030;4.686;2023-12-20T09:32:25;22.80;;;2.92;;
25123;SDS011;13104;51.030;4.686;2023-12-20T09:34:51;2.50;;;2.28;;
25123;SDS011;13104;51.030;4.686;2023-12-20T09:37:17;8.00;;;2.47;;
25123;SDS011;13104;51.030;4.686;2023-12-20T09:39:43;4.45;;;4.13;;
25123;SDS011;13104;51.030;4.686;2023-12-20T09:42:11;3.45;;;2.85;;
25123;SDS011;13104;51.030;4.686;2023-12-20T09:44:37;3.67;;;3.47;;
25123;SDS011;13104;51.030;4.686;2023-12-20T09:47:07;5.00;;;2.95;;
25123;SDS011;13104;51.030;4.686;2023-12-20T09:49:33;4.07;;;2.75;;
25123;SDS011;13104;51.030;4.686;2023-12-20T09:52:00;2.55;;;2.45;;
25123;SDS011;13104;51.030;4.686;2023-12-20T09:54:26;3.72;;;3.25;;
25123;SDS011;13104;51.030;4.686;2023-12-20T09:56:52;2.75;;;2.55;;
25123;SDS011;13104;51.030;4.686;2023-12-20T09:59:18;3.25;;;2.60;;
25123;SDS011;13104;51.030;4.686;2023-12-20T10:01:45;4.15;;;3.45;;
25123;SDS011;13104;51.030;4.686;2023-12-20T10:04:11;3.67;;;3.40;;
25123;SDS011;13104;51.030;4.686;2023-12-20T10:06:41;3.88;;;3.67;;
25123;SDS011;13104;51.030;4.686;2023-12-20T10:09:08;3.90;;;3.60;;
25123;SDS011;13104;51.030;4.686;2023-12-20T10:11:35;11.02;;;3.92;;
25123;SDS011;13104;51.030;4.686;2023-12-20T10:14:04;3.10;;;2.85;;
25123;SDS011;13104;51.030;4.686;2023-12-20T10:16:31;4.30;;;4.00;;
25123;SDS011;13104;51.030;4.686;2023-12-20T10:18:57;3.42;;;3.25;;
25123;SDS011;13104;51.030;4.686;2023-12-20T10:21:24;3.35;;;3.13;;
25123;SDS011;13104;51.030;4.686;2023-12-20T10:23:51;4.53;;;3.35;;
25123;SDS011;13104;51.030;4.686;2023-12-20T10:26:21;3.33;;;3.13;;
25123;SDS011;13104;51.030;4.686;2023-12-20T10:28:53;3.38;;;3.17;;
25123;SDS011;13104;51.030;4.686;2023-12-20T10:33:52;2.78;;;2.60;;
25123;SDS011;13104;51.030;4.686;2023-12-20T10:36:18;3.28;;;3.13;;
25123;SDS011;13104;51.030;4.686;2023-12-20T10:38:44;8.23;;;3.65;;
25123;SDS011;13104;51.030;4.686;2023-12-20T10:41:12;10.50;;;2.78;;
25123;SDS011;13104;51.030;4.686;2023-12-20T10:43:42;5.47;;;2.95;;
25123;SDS011;13104;51.030;4.686;2023-12-20T10:46:08;3.25;;;3.05;;
25123;SDS011;13104;51.030;4.686;2023-12-20T10:48:34;3.15;;;2.85;;
25123;SDS011;13104;51.030;4.686;2023-12-20T10:51:01;2.97;;;2.63;;
25123;SDS011;13104;51.030;4.686;2023-12-20T10:53:27;2.50;;;2.38;;
25123;SDS011;13104;51.030;4.686;2023-12-20T10:55:55;9.40;;;2.50;;
25123;SDS011;13104;51.030;4.686;2023-12-20T10:58:24;2.67;;;2.38;;
25123;SDS011;13104;51.030;4.686;2023-12-20T11:00:52;3.33;;;3.03;;
25123;SDS011;13104;51.030;4.686;2023-12-20T11:03:21;3.08;;;2.35;;
25123;SDS011;13104;51.030;4.686;2023-12-20T11:06:07;4.20;;;3.75;;
25123;SDS011;13104;51.030;4.686;2023-12-20T11:11:14;3.45;;;3.25;;
25123;SDS011;13104;51.030;4.686;2023-12-20T11:14:04;3.97;;;2.85;;
25123;SDS011;13104;51.030;4.686;2023-12-20T11:16:28;4.55;;;2.33;;
25123;SDS011;13104;51.030;4.686;2023-12-20T11:18:54;5.82;;;2.75;;
25123;SDS011;13104;51.030;4.686;2023-12-20T11:21:20;2.72;;;2.63;;
25123;SDS011;13104;51.030;4.686;2023-12-20T11:23:46;2.47;;;2.38;;
25123;SDS011;13104;51.030;4.686;2023-12-20T11:26:15;3.35;;;3.05;;
25123;SDS011;13104;51.030;4.686;2023-12-20T11:28:42;12.32;;;3.33;;
25123;SDS011;13104;51.030;4.686;2023-12-20T11:31:08;9.23;;;3.28;;
25123;SDS011;13104;51.030;4.686;2023-12-20T11:33:36;3.75;;;2.63;;
25123;SDS011;13104;51.030;4.686;2023-12-20T11:36:03;5.22;;;3.15;;
25123;SDS011;13104;51.030;4.686;2023-12-20T11:38:36;6.40;;;3.30;;
25123;SDS011;13104;51.030;4.686;2023-12-20T11:41:04;7.63;;;2.83;;
25123;SDS011;13104;51.030;4.686;2023-12-20T11:46:07;2.53;;;2.42;;
25123;SDS011;13104;51.030;4.686;2023-12-20T11:48:37;2.70;;;2.60;;
25123;SDS011;13104;51.030;4.686;2023-12-20T11:51:11;3.40;;;3.10;;
25123;SDS011;13104;51.030;4.686;2023-12-20T11:53:38;2.95;;;2.80;;
25123;SDS011;13104;51.030;4.686;2023-12-20T11:56:07;3.58;;;3.30;;
25123;SDS011;13104;51.030;4.686;2023-12-20T11:58:34;3.17;;;2.97;;
25123;SDS011;13104;51.030;4.686;2023-12-20T12:01:00;2.78;;;2.67;;
25123;SDS011;13104;51.030;4.686;2023-12-20T12:03:32;4.82;;;3.03;;
25123;SDS011;13104;51.030;4.686;2023-12-20T12:05:58;2.90;;;2.65;;
25123;SDS011;13104;51.030;4.686;2023-12-20T12:08:25;5.20;;;3.20;;
25123;SDS011;13104;51.030;4.686;2023-12-20T12:10:51;6.28;;;3.25;;
25123;SDS011;13104;51.030;4.686;2023-12-20T12:13:17;10.20;;;3.35;;
25123;SDS011;13104;51.030;4.686;2023-12-20T12:15:44;2.75;;;2.55;;
25123;SDS011;13104;51.030;4.686;2023-12-20T12:18:10;2.47;;;2.35;;
25123;SDS011;13104;51.030;4.686;2023-12-20T12:20:36;10.57;;;2.13;;
25123;SDS011;13104;51.030;4.686;2023-12-20T12:23:05;2.63;;;2.50;;
25123;SDS011;13104;51.030;4.686;2023-12-20T12:25:32;1.75;;;1.65;;
25123;SDS011;13104;51.030;4.686;2023-12-20T12:27:58;13.75;;;2.50;;
25123;SDS011;13104;51.030;4.686;2023-12-20T12:30:25;3.00;;;2.55;;
25123;SDS011;13104;51.030;4.686;2023-12-20T12:32:51;3.13;;;2.83;;
25123;SDS011;13104;51.030;4.686;2023-12-20T12:35:18;10.55;;;1.90;;
25123;SDS011;13104;51.030;4.686;2023-12-20T12:37:44;2.50;;;2.33;;
25123;SDS011;13104;51.030;4.686;2023-12-20T12:40:11;4.38;;;1.98;;
25123;SDS011;13104;51.030;4.686;2023-12-20T12:42:38;1.95;;;1.85;;
25123;SDS011;13104;51.030;4.686;2023-12-20T12:45:04;1.98;;;1.88;;
25123;SDS011;13104;51.030;4.686;2023-12-20T12:47:30;2.35;;;2.25;;
25123;SDS011;13104;51.030;4.686;2023-12-20T12:49:56;1.83;;;1.73;;
25123;SDS011;13104;51.030;4.686;2023-12-20T12:52:22;2.35;;;2.15;;
25123;SDS011;13104;51.030;4.686;2023-12-20T12:54:49;5.95;;;2.08;;
25123;SDS011;13104;51.030;4.686;2023-12-20T12:57:15;2.45;;;2.03;;
25123;SDS011;13104;51.030;4.686;2023-12-20T12:59:42;2.15;;;2.00;;
25123;SDS011;13104;51.030;4.686;2023-12-20T13:02:10;9.75;;;3.10;;
25123;SDS011;13104;51.030;4.686;2023-12-20T13:04:36;5.45;;;2.75;;
25123;SDS011;13104;51.030;4.686;2023-12-20T13:07:02;2.33;;;2.13;;
25123;SDS011;13104;51.030;4.686;2023-12-20T13:09:28;3.00;;;2.38;;
25123;SDS011;13104;51.030;4.686;2023-12-20T13:11:54;3.00;;;2.83;;
25123;SDS011;13104;51.030;4.686;2023-12-20T13:14:20;3.20;;;2.75;;
25123;SDS011;13104;51.030;4.686;2023-12-20T13:16:47;3.25;;;2.92;;
25123;SDS011;13104;51.030;4.686;2023-12-20T13:19:13;2.30;;;2.20;;
25123;SDS011;13104;51.030;4.686;2023-12-20T13:21:39;2.85;;;2.70;;
25123;SDS011;13104;51.030;4.686;2023-12-20T13:24:05;3.25;;;2.63;;
25123;SDS011;13104;51.030;4.686;2023-12-20T13:26:31;3.83;;;2.40;;
25123;SDS011;13104;51.030;4.686;2023-12-20T13:28:57;2.90;;;2.70;;
25123;SDS011;13104;51.030;4.686;2023-12-20T13:31:23;5.50;;;3.38;;
25123;SDS011;13104;51.030;4.686;2023-12-20T13:33:49;3.22;;;2.50;;
25123;SDS011;13104;51.030;4.686;2023-12-20T13:36:17;2.75;;;2.55;;
25123;SDS011;13104;51.030;4.686;2023-12-20T13:38:44;3.42;;;2.63;;
25123;SDS011;13104;51.030;4.686;2023-12-20T13:41:10;3.80;;;2.55;;
25123;SDS011;13104;51.030;4.686;2023-12-20T13:43:36;4.82;;;2.38;;
25123;SDS011;13104;51.030;4.686;2023-12-20T13:46:02;4.85;;;2.33;;
25123;SDS011;13104;51.030;4.686;2023-12-20T13:48:28;2.63;;;2.45;;
25123;SDS011;13104;51.030;4.686;2023-12-20T13:50:54;3.20;;;3.00;;
25123;SDS011;13104;51.030;4.686;2023-12-20T13:53:20;2.25;;;2.15;;
25123;SDS011;13104;51.030;4.686;2023-12-20T13:55:46;2.83;;;2.70;;
25123;SDS011;13104;51.030;4.686;2023-12-20T13:58:12;7.30;;;3.40;;
25123;SDS011;13104;51.030;4.686;2023-12-20T14:00:38;10.77;;;2.15;;
25123;SDS011;13104;51.030;4.686;2023-12-20T14:03:04;3.15;;;2.95;;
25123;SDS011;13104;51.030;4.686;2023-12-20T14:05:30;2.85;;;2.53;;
25123;SDS011;13104;51.030;4.686;2023-12-20T14:07:56;2.20;;;2.10;;
25123;SDS011;13104;51.030;4.686;2023-12-20T14:10:23;2.15;;;2.05;;
25123;SDS011;13104;51.030;4.686;2023-12-20T14:12:51;2.95;;;2.75;;
25123;SDS011;13104;51.030;4.686;2023-12-20T14:15:17;9.23;;;2.65;;
25123;SDS011;13104;51.030;4.686;2023-12-20T14:17:43;1.92;;;1.83;;
25123;SDS011;13104;51.030;4.686;2023-12-20T14:20:10;3.08;;;2.17;;
25123;SDS011;13104;51.030;4.686;2023-12-20T14:22:38;3.10;;;2.67;;
25123;SDS011;13104;51.030;4.686;2023-12-20T14:25:08;8.68;;;2.75;;
25123;SDS011;13104;51.030;4.686;2023-12-20T14:27:37;2.72;;;2.50;;
25123;SDS011;13104;51.030;4.686;2023-12-20T14:30:03;6.80;;;2.78;;
25123;SDS011;13104;51.030;4.686;2023-12-20T14:32:29;3.35;;;3.15;;
25123;SDS011;13104;51.030;4.686;2023-12-20T14:34:55;2.47;;;2.28;;
25123;SDS011;13104;51.030;4.686;2023-12-20T14:37:21;2.47;;;2.35;;
25123;SDS011;13104;51.030;4.686;2023-12-20T14:39:47;2.33;;;2.20;;
25123;SDS011;13104;51.030;4.686;2023-12-20T14:42:13;2.38;;;2.20;;
25123;SDS011;13104;51.030;4.686;2023-12-20T14:44:39;2.88;;;2.10;;
25123;SDS011;13104;51.030;4.686;2023-12-20T14:47:06;3.00;;;2.38;;
25123;SDS011;13104;51.030;4.686;2023-12-20T14:49:32;2.85;;;2.65;;